Time;durP1;ratioP1;P1;durP2;ratioP2;P2;SDS_P1;SDS_P2;PMS_P1;PMS_P2;Temp;Humidity;BMP_temperature;BMP_pressure;BME280_temperature;BME280_humidity;BME280_pressure;Samples;Min_cycle;Max_cycle;Signal;HPM_P1;HPM_P2
2023/03/18 22:03:39;;;;;;;17.08;10.27;;;11.80;99.90;;;;;;5067000;28;20353;-61
2023/03/18 22:06:05;;;;;;;20.90;11.98;;;11.60;99.90;;;;;;5044679;28;20104;-62
2023/03/18 22:08:31;;;;;;;28.13;16.95;;;11.70;99.90;;;;;;5038793;28;20021;-61
2023/03/18 22:10:56;;;;;;;29.17;16.80;;;11.80;99.90;;;;;;5047505;28;20028;-62
2023/03/18 22:13:24;;;;;;;34.55;19.20;;;11.90;99.90;;;;;;5047345;28;20025;-62
2023/03/18 22:15:54;;;;;;;33.53;17.98;;;12.00;99.90;;;;;;5045963;28;20026;-60
2023/03/18 22:18:20;;;;;;;34.45;19.48;;;12.10;99.90;;;;;;5045711;28;20541;-61
2023/03/18 22:20:48;;;;;;;28.23;17.65;;;12.20;99.90;;;;;;5047290;28;20099;-60
2023/03/18 22:23:22;;;;;;;18.60;12.07;;;12.20;99.90;;;;;;5048215;28;20129;-63
2023/03/18 22:25:52;;;;;;;13.23;7.28;;;12.30;99.90;;;;;;5048300;28;20087;-60
2023/03/18 22:28:19;;;;;;;9.63;5.75;;;12.30;99.90;;;;;;5046967;28;20052;-59
2023/03/18 22:30:50;;;;;;;17.70;9.55;;;12.40;99.90;;;;;;5046255;28;20021;-62
2023/03/18 22:33:23;;;;;;;19.95;11.68;;;12.40;99.90;;;;;;5048073;28;20083;-60
2023/03/18 22:35:49;;;;;;;25.33;15.30;;;12.40;99.90;;;;;;5047881;28;20533;-61
2023/03/18 22:38:16;;;;;;;28.50;15.60;;;12.40;99.90;;;;;;5048418;28;20028;-63
2023/03/18 22:40:43;;;;;;;29.15;17.70;;;12.40;99.90;;;;;;5047540;28;20053;-63
2023/03/18 22:43:33;;;;;;;26.17;17.52;;;12.40;99.90;;;;;;5040638;28;20030;-63
2023/03/18 22:46:01;;;;;;;23.27;14.90;;;12.40;99.90;;;;;;5025902;28;20026;-62
2023/03/18 22:48:27;;;;;;;20.30;14.90;;;12.40;99.90;;;;;;5025875;28;20030;-64
2023/03/18 22:50:54;;;;;;;17.63;12.05;;;12.40;99.90;;;;;;5026672;28;20105;-61
2023/03/18 22:53:24;;;;;;;12.60;9.52;;;12.30;99.90;;;;;;5026162;28;20025;-64
2023/03/18 22:55:52;;;;;;;14.45;8.50;;;12.30;99.90;;;;;;5025600;28;20017;-60
2023/03/18 22:58:24;;;;;;;12.95;8.93;;;12.20;99.90;;;;;;5043313;28;20033;-60
2023/03/18 23:00:50;;;;;;;13.27;9.63;;;12.20;99.90;;;;;;5045886;28;20025;-60
2023/03/18 23:03:22;;;;;;;10.30;6.97;;;12.10;99.90;;;;;;5062264;28;20055;-61
2023/03/18 23:05:51;;;;;;;20.27;12.63;;;12.10;99.90;;;;;;5065898;28;20021;-62
2023/03/18 23:08:18;;;;;;;41.80;25.15;;;12.10;99.90;;;;;;5065078;28;20021;-61
2023/03/18 23:10:44;;;;;;;40.40;25.23;;;12.10;99.90;;;;;;5064645;28;20052;-61
2023/03/18 23:13:22;;;;;;;28.30;18.55;;;12.10;99.90;;;;;;5061934;28;20022;-62
2023/03/18 23:15:48;;;;;;;16.52;11.18;;;12.20;99.90;;;;;;5051838;28;20029;-61
2023/03/18 23:18:15;;;;;;;10.65;6.90;;;12.20;99.90;;;;;;5052691;28;20028;-60
2023/03/18 23:20:43;;;;;;;6.35;3.60;;;12.20;99.90;;;;;;5051627;28;20036;-61
2023/03/18 23:23:09;;;;;;;5.88;2.10;;;12.20;99.90;;;;;;5051526;28;20119;-61
2023/03/18 23:25:36;;;;;;;3.15;1.92;;;12.20;99.90;;;;;;5051959;28;20052;-61
2023/03/18 23:28:01;;;;;;;2.83;1.75;;;12.20;99.90;;;;;;5051991;28;20029;-62
2023/03/18 23:30:27;;;;;;;4.63;2.17;;;12.20;99.90;;;;;;5051185;28;20083;-62
2023/03/18 23:32:53;;;;;;;4.50;2.40;;;12.20;99.90;;;;;;5051101;28;20485;-61
2023/03/18 23:35:19;;;;;;;7.32;4.05;;;12.20;99.90;;;;;;5052048;28;20401;-60
2023/03/18 23:37:45;;;;;;;9.70;6.53;;;12.20;99.90;;;;;;5051095;28;20064;-61
2023/03/18 23:40:11;;;;;;;13.15;8.13;;;12.20;99.90;;;;;;5051418;28;20017;-65
2023/03/18 23:42:37;;;;;;;11.52;7.20;;;12.20;99.90;;;;;;5051571;28;20438;-65
2023/03/18 23:45:03;;;;;;;10.50;5.85;;;12.20;99.90;;;;;;5050648;28;20497;-63
2023/03/18 23:47:29;;;;;;;7.10;3.97;;;12.10;99.90;;;;;;5051822;28;20029;-64
2023/03/18 23:49:55;;;;;;;8.88;5.68;;;12.10;99.90;;;;;;5051852;28;20021;-63
2023/03/18 23:52:21;;;;;;;11.23;5.40;;;12.20;99.90;;;;;;5050521;28;20446;-61
2023/03/18 23:54:47;;;;;;;9.75;5.18;;;12.10;99.90;;;;;;5052524;28;20040;-61
2023/03/18 23:57:12;;;;;;;8.15;5.07;;;12.20;99.90;;;;;;5053537;28;20025;-61
